Time;durP1;ratioP1;P1;durP2;ratioP2;P2;SDS_P1;SDS_P2;PMS_P1;PMS_P2;Temp;Humidity;BMP_temperature;BMP_pressure;BME280_temperature;BME280_humidity;BME280_pressure;Samples;Min_cycle;Max_cycle;Signal;HPM_P1;HPM_P2
2021/11/22 00:04:06;;;;;;;0.00;0.00;;;;;;;-145.06;100.00;63404.56;10587666;28;20153;-67
2021/11/22 00:09:06;;;;;;;0.00;0.00;;;;;;;-145.06;100.00;63404.56;10588014;28;20028;-66
2021/11/22 00:14:06;;;;;;;0.00;0.00;;;;;;;-145.06;100.00;63404.56;10569379;28;20192;-66
2021/11/22 00:19:07;;;;;;;0.00;0.00;;;;;;;-145.06;100.00;63404.56;10586988;28;20273;-66
2021/11/22 00:24:07;;;;;;;0.00;0.00;;;;;;;-145.06;100.00;63404.56;10587080;28;20020;-66
2021/11/22 00:29:08;;;;;;;0.00;0.00;;;;;;;-145.06;100.00;63404.56;10555060;27;20497;-66
2021/11/22 00:34:08;;;;;;;0.00;0.00;;;;;;;-145.06;100.00;63404.56;10561935;28;20016;-66
2021/11/22 00:39:08;;;;;;;0.00;0.00;;;;;;;-145.06;100.00;63404.56;10545921;28;20319;-66
2021/11/22 00:44:09;;;;;;;0.10;0.10;;;;;;;-145.06;100.00;63404.56;10545271;28;20099;-66
2021/11/22 00:49:09;;;;;;;0.00;0.00;;;;;;;-145.06;100.00;63404.56;10545151;28;20103;-66
2021/11/22 00:54:10;;;;;;;0.10;0.10;;;;;;;-145.06;100.00;63404.56;10544498;28;20270;-66
2021/11/22 00:59:10;;;;;;;0.00;0.00;;;;;;;-145.06;100.00;63404.56;10554819;27;20028;-66
2021/11/22 01:04:11;;;;;;;0.10;0.10;;;;;;;-145.06;100.00;63404.56;10544384;28;20024;-66
2021/11/22 01:09:12;;;;;;;0.00;0.00;;;;;;;-145.06;100.00;63404.56;10544763;28;20454;-66
2021/11/22 01:14:13;;;;;;;0.00;0.00;;;;;;;-145.06;100.00;63404.56;10545309;28;20020;-66
2021/11/22 01:19:14;;;;;;;0.03;0.03;;;;;;;-145.06;100.00;63404.56;10538369;28;20024;-65
2021/11/22 01:24:14;;;;;;;0.00;0.00;;;;;;;-145.06;100.00;63404.56;10538139;28;20022;-66
2021/11/22 01:29:15;;;;;;;0.00;0.00;;;;;;;-145.06;100.00;63404.56;10547067;28;20049;-66
2021/11/22 01:34:15;;;;;;;0.00;0.00;;;;;;;-145.06;100.00;63404.56;10542679;28;20020;-66
2021/11/22 01:39:15;;;;;;;0.00;0.00;;;;;;;-145.06;100.00;63404.56;10537217;28;20659;-66
2021/11/22 01:44:16;;;;;;;0.00;0.00;;;;;;;-145.06;100.00;63404.56;10536583;28;20286;-66
2021/11/22 01:49:17;;;;;;;0.00;0.00;;;;;;;-145.06;100.00;63404.56;10542866;28;20250;-66
2021/11/22 01:54:17;;;;;;;0.00;0.00;;;;;;;-145.06;100.00;63404.56;10535931;28;20286;-66
2021/11/22 01:59:18;;;;;;;0.03;0.03;;;;;;;-145.06;100.00;63404.56;10564125;28;20032;-66
2021/11/22 02:04:18;;;;;;;0.00;0.00;;;;;;;-145.06;100.00;63404.56;10562416;28;20282;-66
2021/11/22 02:09:18;;;;;;;0.00;0.00;;;;;;;-145.06;100.00;63404.56;10540720;28;20504;-66
2021/11/22 02:14:19;;;;;;;0.00;0.00;;;;;;;-145.06;100.00;63404.56;10537791;28;20026;-66
2021/11/22 02:19:19;;;;;;;0.00;0.00;;;;;;;-145.06;100.00;63404.56;10559385;28;20027;-66
2021/11/22 02:24:20;;;;;;;0.00;0.00;;;;;;;-145.06;100.00;63404.56;10555938;28;20466;-66
2021/11/22 02:29:20;;;;;;;0.10;0.10;;;;;;;-145.06;100.00;63404.56;10562769;28;20059;-66
2021/11/22 02:34:21;;;;;;;0.10;0.10;;;;;;;-145.06;100.00;63404.56;10546258;28;20481;-66
2021/11/22 02:39:21;;;;;;;0.10;0.10;;;;;;;-145.06;100.00;63404.56;10561504;28;20111;-66
2021/11/22 02:44:22;;;;;;;0.10;0.10;;;;;;;-145.06;100.00;63404.56;10545936;28;20451;-66
2021/11/22 02:49:22;;;;;;;0.10;0.10;;;;;;;-145.06;100.00;63404.56;10545501;28;20055;-66
2021/11/22 02:54:22;;;;;;;0.00;0.00;;;;;;;-145.06;100.00;63404.56;10553680;28;20020;-66
2021/11/22 02:59:23;;;;;;;0.05;0.05;;;;;;;-145.06;100.00;63404.56;10561191;27;20027;-66
2021/11/22 03:04:32;;;;;;;0.10;0.10;;;;;;;-145.06;100.00;63404.56;10570420;28;20466;-66
2021/11/22 03:09:32;;;;;;;0.10;0.10;;;;;;;-145.06;100.00;63404.56;10558523;28;20387;-66
2021/11/22 03:14:33;;;;;;;0.10;0.10;;;;;;;-145.06;100.00;63404.56;10557119;28;20023;-66
2021/11/22 03:19:34;;;;;;;0.00;0.00;;;;;;;-145.06;100.00;63404.56;10556076;28;20084;-66
2021/11/22 03:24:34;;;;;;;0.10;0.10;;;;;;;-145.06;100.00;63404.56;10555643;28;20148;-66
2021/11/22 03:29:35;;;;;;;0.00;0.00;;;;;;;-145.06;100.00;63404.56;10558717;27;20546;-66
2021/11/22 03:34:35;;;;;;;0.10;0.10;;;;;;;-145.06;100.00;63404.56;10559854;28;20024;-66
2021/11/22 03:39:36;;;;;;;0.10;0.10;;;;;;;-145.06;100.00;63404.56;10555697;28;20020;-66
2021/11/22 03:44:36;;;;;;;0.10;0.10;;;;;;;-145.06;100.00;63404.56;10555320;28;20054;-66
2021/11/22 03:49:36;;;;;;;0.00;0.00;;;;;;;-145.06;100.00;63404.56;10555637;28;20012;-66
2021/11/22 03:54:38;;;;;;;0.10;0.10;;;;;;;-145.06;100.00;63404.56;10559118;28;20072;-65
2021/11/22 03:59:38;;;;;;;0.00;0.00;;;;;;;-145.06;100.00;63404.56;10549741;28;20165;-66
2021/11/22 04:04:38;;;;;;;0.08;0.08;;;;;;;-145.06;100.00;63404.56;10556297;28;20104;-66
2021/11/22 04:09:39;;;;;;;0.07;0.07;;;;;;;-145.06;100.00;63404.56;10562279;28;20466;-66
2021/11/22 04:14:40;;;;;;;0.03;0.03;;;;;;;-145.06;100.00;63404.56;10551736;28;20334;-66
2021/11/22 04:19:40;;;;;;;0.10;0.10;;;;;;;-145.06;100.00;63404.56;10558020;28;20072;-66
2021/11/22 04:24:41;;;;;;;0.10;0.10;;;;;;;-145.06;100.00;63404.56;10565429;28;20030;-66
2021/11/22 04:29:41;;;;;;;0.13;0.13;;;;;;;-145.06;100.00;63404.56;10550941;28;20024;-66
2021/11/22 04:34:42;;;;;;;0.00;0.00;;;;;;;-145.06;100.00;63404.56;10554427;28;20031;-66
2021/11/22 04:39:42;;;;;;;0.00;0.00;;;;;;;-145.06;100.00;63404.56;10555853;28;20108;-66
2021/11/22 04:44:42;;;;;;;0.00;0.00;;;;;;;-145.06;100.00;63404.56;10557493;28;20031;-66
2021/11/22 04:49:43;;;;;;;0.03;0.03;;;;;;;-145.06;100.00;63404.56;10560162;28;20836;-66
2021/11/22 04:54:44;;;;;;;0.00;0.00;;;;;;;-145.06;100.00;63404.56;10561923;28;20278;-66
2021/11/22 04:59:45;;;;;;;0.08;0.08;;;;;;;-145.06;100.00;63404.56;10566084;28;20027;-66
2021/11/22 05:04:45;;;;;;;0.00;0.00;;;;;;;-145.06;100.00;63404.56;10553742;28;20027;-66
2021/11/22 05:09:46;;;;;;;0.00;0.00;;;;;;;-145.06;100.00;63404.56;10555606;28;20466;-66
2021/11/22 05:14:46;;;;;;;0.05;0.05;;;;;;;-145.06;100.00;63404.56;10561219;28;20028;-65
2021/11/22 05:19:47;;;;;;;0.10;0.10;;;;;;;-145.06;100.00;63404.56;10561632;28;20024;-66
2021/11/22 05:24:49;;;;;;;0.00;0.00;;;;;;;-145.06;100.00;63404.56;10577696;27;20012;-66
2021/11/22 05:29:50;;;;;;;0.00;0.00;;;;;;;-145.06;100.00;63404.56;10565862;28;20270;-66
2021/11/22 05:34:53;;;;;;;0.00;0.00;;;;;;;-145.06;100.00;63404.56;10566293;28;20479;-66
2021/11/22 05:39:55;;;;;;;0.00;0.00;;;;;;;-145.06;100.00;63404.56;10559816;28;20491;-66
2021/11/22 05:44:55;;;;;;;0.00;0.00;;;;;;;-145.06;100.00;63404.56;10541400;28;20012;-66
2021/11/22 05:50:03;;;;;;;0.00;0.00;;;;;;;-145.06;100.00;63404.56;10567121;28;20394;-66
2021/11/22 05:55:09;;;;;;;0.00;0.00;;;;;;;-145.06;100.00;63404.56;10559288;28;20028;-66
2021/11/22 06:00:10;;;;;;;0.10;0.10;;;;;;;-145.06;100.00;63404.56;10570844;28;20046;-66
2021/11/22 06:05:10;;;;;;;0.10;0.10;;;;;;;-145.06;100.00;63404.56;10558559;28;20019;-66
2021/11/22 06:10:11;;;;;;;0.10;0.10;;;;;;;-145.06;100.00;63404.56;10550686;28;20026;-66
2021/11/22 06:15:11;;;;;;;0.10;0.10;;;;;;;-145.06;100.00;63404.56;10560888;28;20028;-66
2021/11/22 06:20:12;;;;;;;0.10;0.10;;;;;;;-145.06;100.00;63404.56;10559191;28;20031;-66
2021/11/22 06:25:12;;;;;;;0.00;0.00;;;;;;;-145.06;100.00;63404.56;10554624;28;20031;-66
2021/11/22 06:30:12;;;;;;;0.10;0.10;;;;;;;-145.06;100.00;63404.56;10566820;27;20080;-66
2021/11/22 06:35:13;;;;;;;0.00;0.00;;;;;;;-145.06;100.00;63404.56;10557802;28;20362;-66
2021/11/22 06:40:14;;;;;;;0.00;0.00;;;;;;;-145.06;100.00;63404.56;10568799;28;20273;-66
2021/11/22 06:45:17;;;;;;;0.00;0.00;;;;;;;-145.06;100.00;63404.56;10556170;28;20050;-67
2021/11/22 06:50:18;;;;;;;0.10;0.10;;;;;;;-145.06;100.00;63404.56;10544286;27;20482;-66
2021/11/22 06:55:19;;;;;;;0.00;0.00;;;;;;;-145.06;100.00;63404.56;10558781;27;20023;-66
2021/11/22 07:00:21;;;;;;;0.10;0.10;;;;;;;-145.06;100.00;63404.56;10555884;27;20020;-66
2021/11/22 07:05:24;;;;;;;0.00;0.00;;;;;;;-145.06;100.00;63404.56;10534670;27;20019;-66
2021/11/22 07:10:25;;;;;;;0.00;0.00;;;;;;;-145.06;100.00;63404.56;10528585;28;20063;-66
2021/11/22 07:15:33;;;;;;;0.00;0.00;;;;;;;-145.06;100.00;63404.56;10555999;27;20054;-66
2021/11/22 07:20:33;;;;;;;0.00;0.00;;;;;;;-145.06;100.00;63404.56;10556748;27;20027;-66
2021/11/22 07:25:34;;;;;;;0.00;0.00;;;;;;;-145.06;100.00;63404.56;10532810;27;20016;-66
2021/11/22 07:30:34;;;;;;;0.03;0.03;;;;;;;-145.06;100.00;63404.56;10537530;28;20115;-66
2021/11/22 07:35:34;;;;;;;0.20;0.20;;;;;;;-145.06;100.00;63404.56;10551618;27;20404;-65
2021/11/22 07:40:35;;;;;;;0.00;0.00;;;;;;;-145.06;100.00;63404.56;10552352;27;20050;-65
2021/11/22 07:45:36;;;;;;;0.10;0.10;;;;;;;-145.06;100.00;63404.56;10552945;27;20580;-66
2021/11/22 07:50:38;;;;;;;0.10;0.10;;;;;;;-145.06;100.00;63404.56;10560712;27;20107;-66
2021/11/22 07:55:38;;;;;;;0.00;0.00;;;;;;;-145.06;100.00;63404.56;10561755;28;20519;-66
2021/11/22 08:00:38;;;;;;;0.10;0.10;;;;;;;-145.06;100.00;63404.56;10551370;28;20020;-66
2021/11/22 08:05:40;;;;;;;0.10;0.10;;;;;;;-145.06;100.00;63404.56;10561210;28;20019;-66
2021/11/22 08:10:40;;;;;;;0.10;0.10;;;;;;;-145.06;100.00;63404.56;10559134;28;20257;-66
2021/11/22 08:15:41;;;;;;;0.00;0.00;;;;;;;-145.06;100.00;63404.56;10539023;28;20411;-66
2021/11/22 08:20:41;;;;;;;0.00;0.00;;;;;;;-145.06;100.00;63404.56;10563060;27;20024;-66
2021/11/22 08:25:43;;;;;;;0.00;0.00;;;;;;;-145.06;100.00;63404.56;10566432;27;20565;-66
2021/11/22 08:30:44;;;;;;;0.00;0.00;;;;;;;-145.06;100.00;63404.56;10555607;27;20316;-66
2021/11/22 08:35:47;;;;;;;0.00;0.00;;;;;;;-145.06;100.00;63404.56;10572972;27;20463;-66
2021/11/22 08:40:48;;;;;;;0.00;0.00;;;;;;;-145.06;100.00;63404.56;10570311;27;20604;-66
2021/11/22 08:45:48;;;;;;;0.08;0.08;;;;;;;-145.06;100.00;63404.56;10573578;27;20015;-66
2021/11/22 08:50:49;;;;;;;0.00;0.00;;;;;;;-145.06;100.00;63404.56;10562857;28;20481;-66
2021/11/22 08:55:49;;;;;;;0.00;0.00;;;;;;;-145.06;100.00;63404.56;10568494;28;20056;-66
2021/11/22 09:00:50;;;;;;;0.00;0.00;;;;;;;-145.06;100.00;63404.56;10562991;27;20485;-66
2021/11/22 09:05:50;;;;;;;0.00;0.00;;;;;;;-145.06;100.00;63404.56;10579335;22;20048;-68
2021/11/22 09:10:51;;;;;;;0.00;0.00;;;;;;;-145.06;100.00;63404.56;10557467;27;20018;-67
2021/11/22 09:15:51;;;;;;;0.00;0.00;;;;;;;-145.06;100.00;63404.56;10556111;28;20309;-65
2021/11/22 09:20:52;;;;;;;0.00;0.00;;;;;;;-145.06;100.00;63404.56;10547001;28;20023;-67
2021/11/22 09:25:52;;;;;;;0.00;0.00;;;;;;;-145.06;100.00;63404.56;10567308;28;20044;-67
2021/11/22 09:30:53;;;;;;;0.00;0.00;;;;;;;-145.06;100.00;63404.56;10548908;28;20020;-67
2021/11/22 09:35:53;;;;;;;0.00;0.00;;;;;;;-145.06;100.00;63404.56;10559459;28;20023;-67
2021/11/22 09:40:54;;;;;;;0.00;0.00;;;;;;;-145.06;100.00;63404.56;10563587;27;20344;-68
2021/11/22 09:45:55;;;;;;;0.00;0.00;;;;;;;-145.06;100.00;63404.56;10544164;28;20125;-67
2021/11/22 09:50:56;;;;;;;0.03;0.03;;;;;;;-145.06;100.00;63404.56;10547991;28;20119;-68
2021/11/22 09:55:56;;;;;;;0.00;0.00;;;;;;;-145.06;100.00;63404.56;10562949;27;20026;-67
2021/11/22 10:01:03;;;;;;;0.00;0.00;;;;;;;-145.06;100.00;63404.56;10566387;27;20019;-68
2021/11/22 10:06:04;;;;;;;0.00;0.00;;;;;;;-145.06;100.00;63404.56;10560143;27;20024;-65
2021/11/22 10:11:08;;;;;;;0.00;0.00;;;;;;;-145.06;100.00;63404.56;10570692;27;20389;-67
2021/11/22 10:16:11;;;;;;;0.00;0.00;;;;;;;-145.06;100.00;63404.56;10562298;27;20031;-68
2021/11/22 10:21:26;;;;;;;0.00;0.00;;;;;;;-145.06;100.00;63404.56;10562000;27;20020;-67
2021/11/22 10:26:35;;;;;;;0.00;0.00;;;;;;;-145.06;100.00;63404.56;10559194;28;20027;-67
2021/11/22 10:31:37;;;;;;;0.00;0.00;;;;;;;-145.06;100.00;63404.56;10570209;27;20016;-67
2021/11/22 10:36:38;;;;;;;0.00;0.00;;;;;;;-145.06;100.00;63404.56;10566137;28;20020;-67
2021/11/22 10:41:43;;;;;;;0.00;0.00;;;;;;;-145.06;100.00;63404.56;10556841;28;20023;-66
2021/11/22 10:46:54;;;;;;;0.00;0.00;;;;;;;-145.06;100.00;63404.56;10577608;27;20050;-67
2021/11/22 10:52:25;;;;;;;0.00;0.00;;;;;;;-145.06;100.00;63404.56;10563812;28;20030;-66
2021/11/22 10:57:37;;;;;;;0.00;0.00;;;;;;;-145.06;100.00;63404.56;10562802;28;20034;-67
2021/11/22 11:02:42;;;;;;;0.00;0.00;;;;;;;-145.06;100.00;63404.56;10555867;28;20108;-67
2021/11/22 11:07:43;;;;;;;;;;;;;;;-145.06;100.00;63404.56;10554288;28;20028;-67
2021/11/22 11:12:43;;;;;;;0.00;0.00;;;;;;;-145.06;100.00;63404.56;10556329;28;20004;-67
2021/11/22 11:17:44;;;;;;;0.00;0.00;;;;;;;-145.06;100.00;63404.56;10561924;27;20106;-67
2021/11/22 11:22:45;;;;;;;0.00;0.00;;;;;;;-145.06;100.00;63404.56;10558705;28;20370;-66
2021/11/22 11:27:46;;;;;;;0.00;0.00;;;;;;;-145.06;100.00;63404.56;10559522;28;20022;-67
2021/11/22 11:32:48;;;;;;;0.00;0.00;;;;;;;-145.06;100.00;63404.56;10560532;28;20112;-66
2021/11/22 11:37:56;;;;;;;0.00;0.00;;;;;;;-145.06;100.00;63404.56;10566053;27;20038;-67
2021/11/22 11:43:17;;;;;;;0.00;0.00;;;;;;;-145.06;100.00;63404.56;10559320;28;20020;-67
2021/11/22 11:48:33;;;;;;;0.00;0.00;;;;;;;-145.06;100.00;63404.56;10567950;27;20027;-67
2021/11/22 11:53:35;;;;;;;0.00;0.00;;;;;;;-145.06;100.00;63404.56;10535332;28;20028;-66
2021/11/22 11:58:35;;;;;;;0.00;0.00;;;;;;;-145.06;100.00;63404.56;10566150;27;20027;-67
2021/11/22 12:04:00;;;;;;;0.00;0.00;;;;;;;-145.06;100.00;63404.56;10568957;28;20020;-66
2021/11/22 12:09:36;;;;;;;0.00;0.00;;;;;;;-145.06;100.00;63404.56;10560238;28;20114;-67
2021/11/22 12:14:48;;;;;;;0.00;0.00;;;;;;;-145.06;100.00;63404.56;10535212;28;20027;-68
2021/11/22 12:19:51;;;;;;;0.00;0.00;;;;;;;-145.06;100.00;63404.56;10556019;28;20028;-68
2021/11/22 12:24:51;;;;;;;0.00;0.00;;;;;;;-145.06;100.00;63404.56;10549961;28;20020;-67
2021/11/22 12:29:52;;;;;;;0.00;0.00;;;;;;;-145.06;100.00;63404.56;10573813;28;20093;-67
2021/11/22 12:35:05;;;;;;;0.00;0.00;;;;;;;-145.06;100.00;63404.56;10553094;28;20066;-66
2021/11/22 12:40:13;;;;;;;0.00;0.00;;;;;;;-145.06;100.00;63404.56;10536815;28;20043;-67
2021/11/22 12:45:16;;;;;;;0.00;0.00;;;;;;;-145.06;100.00;63404.56;10555568;28;20026;-67
2021/11/22 12:50:21;;;;;;;0.00;0.00;;;;;;;-145.06;100.00;63404.56;10571077;28;20490;-67
2021/11/22 12:55:23;;;;;;;0.00;0.00;;;;;;;-145.06;100.00;63404.56;10567569;28;20020;-66
2021/11/22 13:00:37;;;;;;;0.00;0.00;;;;;;;-145.06;100.00;63404.56;10558255;28;20435;-67
2021/11/22 13:05:44;;;;;;;0.00;0.00;;;;;;;-145.06;100.00;63404.56;10548519;28;20059;-67
2021/11/22 13:10:51;;;;;;;0.00;0.00;;;;;;;-145.06;100.00;63404.56;10575771;28;20453;-67
2021/11/22 13:15:55;;;;;;;0.00;0.00;;;;;;;-145.06;100.00;63404.56;10553164;28;20024;-67
2021/11/22 13:20:58;;;;;;;0.00;0.00;;;;;;;-145.06;100.00;63404.56;10572418;28;20363;-67
2021/11/22 13:25:58;;;;;;;0.00;0.00;;;;;;;-145.06;100.00;63404.56;10556377;28;20019;-67
2021/11/22 13:31:06;;;;;;;0.00;0.00;;;;;;;-145.06;100.00;63404.56;10563154;28;20359;-68
2021/11/22 13:36:07;;;;;;;0.00;0.00;;;;;;;-145.06;100.00;63404.56;10560346;28;20284;-67
2021/11/22 13:41:16;;;;;;;0.00;0.00;;;;;;;-145.06;100.00;63404.56;10560386;28;20355;-67
2021/11/22 13:46:17;;;;;;;0.00;0.00;;;;;;;-145.06;100.00;63404.56;10563185;28;20023;-66
2021/11/22 13:51:33;;;;;;;0.00;0.00;;;;;;;-145.06;100.00;63404.56;10560759;28;20034;-67
2021/11/22 13:56:57;;;;;;;0.00;0.00;;;;;;;-145.06;100.00;63404.56;10574381;27;20034;-66
2021/11/22 14:02:02;;;;;;;0.00;0.00;;;;;;;-145.06;100.00;63404.56;10562350;28;20023;-67
2021/11/22 14:07:40;;;;;;;0.00;0.00;;;;;;;-145.06;100.00;63404.56;10549887;28;20112;-66
2021/11/22 14:12:40;;;;;;;0.00;0.00;;;;;;;-145.06;100.00;63404.56;10571283;28;20020;-67
2021/11/22 14:17:47;;;;;;;0.00;0.00;;;;;;;-145.06;100.00;63404.56;10571450;28;20023;-67
2021/11/22 14:23:05;;;;;;;0.00;0.00;;;;;;;-145.06;100.00;63404.56;10566606;28;20016;-67
2021/11/22 14:28:17;;;;;;;0.00;0.00;;;;;;;-145.06;100.00;63404.56;10552573;28;20397;-67
2021/11/22 14:33:23;;;;;;;0.00;0.00;;;;;;;-145.06;100.00;63404.56;10564719;28;20116;-67
2021/11/22 14:38:26;;;;;;;0.00;0.00;;;;;;;-145.06;100.00;63404.56;10568874;27;20107;-67
2021/11/22 14:43:35;;;;;;;0.00;0.00;;;;;;;-145.06;100.00;63404.56;10545236;28;20494;-66
2021/11/22 14:48:40;;;;;;;0.00;0.00;;;;;;;-145.06;100.00;63404.56;10551230;28;20023;-67
2021/11/22 14:53:57;;;;;;;0.00;0.00;;;;;;;-145.06;100.00;63404.56;10556920;28;20529;-66
2021/11/22 14:59:00;;;;;;;0.00;0.00;;;;;;;-145.06;100.00;63404.56;10539108;28;20039;-66
2021/11/22 15:04:28;;;;;;;0.00;0.00;;;;;;;-145.06;100.00;63404.56;10536005;22;20098;-66
2021/11/22 15:09:32;;;;;;;0.00;0.00;;;;;;;-145.06;100.00;63404.56;10434026;28;20491;-66
2021/11/22 15:14:42;;;;;;;0.00;0.00;;;;;;;-145.06;100.00;63404.56;10424053;28;20056;-67
2021/11/22 15:19:44;;;;;;;0.00;0.00;;;;;;;-145.06;100.00;63404.56;10438451;28;20029;-67
2021/11/22 15:24:46;;;;;;;0.00;0.00;;;;;;;-145.06;100.00;63404.56;10431711;28;20230;-67
2021/11/22 15:29:48;;;;;;;0.00;0.00;;;;;;;-145.06;100.00;63404.56;10431863;28;20056;-66
2021/11/22 15:34:51;;;;;;;0.00;0.00;;;;;;;-145.06;100.00;63404.56;10439739;28;20013;-67
2021/11/22 15:39:53;;;;;;;0.00;0.00;;;;;;;-145.06;100.00;63404.56;10428312;28;20468;-67
2021/11/22 15:44:53;;;;;;;0.00;0.00;;;;;;;-145.06;100.00;63404.56;10436187;28;20100;-68
2021/11/22 15:49:53;;;;;;;0.03;0.03;;;;;;;-145.06;100.00;63404.56;10430706;28;20029;-66
2021/11/22 15:54:54;;;;;;;0.00;0.00;;;;;;;-145.06;100.00;63404.56;10446168;28;20020;-67
2021/11/22 15:59:54;;;;;;;0.00;0.00;;;;;;;-145.06;100.00;63404.56;10423821;28;20079;-67
2021/11/22 16:04:55;;;;;;;0.00;0.00;;;;;;;-145.06;100.00;63404.56;10370018;28;1047000;-66
2021/11/22 16:09:55;;;;;;;0.00;0.00;;;;;;;-145.06;100.00;63404.56;10406749;28;20033;-67
2021/11/22 16:14:56;;;;;;;0.00;0.00;;;;;;;-145.06;100.00;63404.56;10408774;28;20044;-66
2021/11/22 16:19:56;;;;;;;0.00;0.00;;;;;;;-145.06;100.00;63404.56;10414201;28;20057;-67
2021/11/22 16:24:56;;;;;;;0.00;0.00;;;;;;;-145.06;100.00;63404.56;10408830;28;20507;-67
2021/11/22 16:29:57;;;;;;;0.00;0.00;;;;;;;-145.06;100.00;63404.56;10409505;28;20031;-67
2021/11/22 16:34:57;;;;;;;0.00;0.00;;;;;;;-145.06;100.00;63404.56;10408481;28;20543;-67
2021/11/22 16:39:57;;;;;;;0.00;0.00;;;;;;;-145.06;100.00;63404.56;10408642;28;20029;-66
2021/11/22 16:44:57;;;;;;;0.00;0.00;;;;;;;-145.06;100.00;63404.56;10416532;28;20279;-67
2021/11/22 16:49:58;;;;;;;0.00;0.00;;;;;;;-145.06;100.00;63404.56;10448668;28;20029;-66
2021/11/22 16:54:58;;;;;;;0.00;0.00;;;;;;;-145.06;100.00;63404.56;10439366;28;20047;-66
2021/11/22 16:59:58;;;;;;;0.00;0.00;;;;;;;-145.06;100.00;63404.56;10458496;28;20275;-66
2021/11/22 17:04:59;;;;;;;0.00;0.00;;;;;;;-145.06;100.00;63404.56;10457063;28;20037;-66
2021/11/22 17:09:59;;;;;;;0.00;0.00;;;;;;;-145.06;100.00;63404.56;10457514;28;20029;-66
2021/11/22 17:14:59;;;;;;;0.00;0.00;;;;;;;-145.06;100.00;63404.56;10421185;28;20021;-66
2021/11/22 17:20:00;;;;;;;0.00;0.00;;;;;;;-145.06;100.00;63404.56;10425925;28;20029;-66
2021/11/22 17:25:00;;;;;;;0.00;0.00;;;;;;;-145.06;100.00;63404.56;10456153;28;20056;-67
2021/11/22 17:30:01;;;;;;;0.00;0.00;;;;;;;-145.06;100.00;63404.56;10456581;28;20032;-67
2021/11/22 17:35:02;;;;;;;0.00;0.00;;;;;;;-145.06;100.00;63404.56;10455509;28;20028;-66
2021/11/22 17:40:03;;;;;;;0.00;0.00;;;;;;;-145.06;100.00;63404.56;10455888;28;20128;-66
2021/11/22 17:45:07;;;;;;;0.00;0.00;;;;;;;-145.06;100.00;63404.56;10455270;28;20365;-66
2021/11/22 17:50:08;;;;;;;0.00;0.00;;;;;;;-145.06;100.00;63404.56;10427207;28;20025;-66
2021/11/22 17:55:15;;;;;;;0.00;0.00;;;;;;;-145.06;100.00;63404.56;10412748;28;20025;-66
2021/11/22 18:00:18;;;;;;;0.00;0.00;;;;;;;-145.06;100.00;63404.56;10413940;28;20400;-66
2021/11/22 18:05:18;;;;;;;0.00;0.00;;;;;;;-145.06;100.00;63404.56;10413280;28;20032;-66
2021/11/22 18:10:19;;;;;;;0.00;0.00;;;;;;;-145.06;100.00;63404.56;10413411;28;20428;-66
2021/11/22 18:15:20;;;;;;;0.00;0.00;;;;;;;-145.06;100.00;63404.56;10412793;28;20302;-67
2021/11/22 18:20:20;;;;;;;0.00;0.00;;;;;;;-145.06;100.00;63404.56;10418184;28;20392;-66
2021/11/22 18:25:21;;;;;;;0.00;0.00;;;;;;;-145.06;100.00;63404.56;10412743;28;20025;-66
2021/11/22 18:30:21;;;;;;;0.00;0.00;;;;;;;-145.06;100.00;63404.56;10394964;28;20028;-66
2021/11/22 18:35:21;;;;;;;0.00;0.00;;;;;;;-145.06;100.00;63404.56;10394060;28;20028;-66
2021/11/22 18:40:22;;;;;;;0.00;0.00;;;;;;;-145.06;100.00;63404.56;10412540;28;20343;-66
2021/11/22 18:45:22;;;;;;;0.00;0.00;;;;;;;-145.06;100.00;63404.56;10411765;28;20283;-66
2021/11/22 18:50:26;;;;;;;0.00;0.00;;;;;;;-145.06;100.00;63404.56;10417090;28;20025;-66
2021/11/22 18:55:26;;;;;;;0.00;0.00;;;;;;;-145.06;100.00;63404.56;10411370;28;20036;-66
2021/11/22 19:00:26;;;;;;;0.00;0.00;;;;;;;-145.06;100.00;63404.56;10411491;28;20464;-66
2021/11/22 19:05:27;;;;;;;0.00;0.00;;;;;;;-145.06;100.00;63404.56;10410754;28;20048;-67
2021/11/22 19:10:27;;;;;;;0.00;0.00;;;;;;;-145.06;100.00;63404.56;10411128;28;20025;-67
2021/11/22 19:15:28;;;;;;;0.00;0.00;;;;;;;-145.06;100.00;63404.56;10410470;28;20083;-66
2021/11/22 19:20:28;;;;;;;0.00;0.00;;;;;;;-145.06;100.00;63404.56;10416115;28;20018;-66
2021/11/22 19:25:28;;;;;;;0.00;0.00;;;;;;;-145.06;100.00;63404.56;10410530;28;20265;-66
2021/11/22 19:30:30;;;;;;;0.00;0.00;;;;;;;-145.06;100.00;63404.56;10410862;28;20495;-66
2021/11/22 19:35:30;;;;;;;0.00;0.00;;;;;;;-145.06;100.00;63404.56;10410139;28;20789;-67
2021/11/22 19:40:31;;;;;;;0.00;0.00;;;;;;;-145.06;100.00;63404.56;10410288;28;20037;-66
2021/11/22 19:45:32;;;;;;;0.00;0.00;;;;;;;-145.06;100.00;63404.56;10409231;28;20151;-66
2021/11/22 19:50:32;;;;;;;0.00;0.00;;;;;;;-145.06;100.00;63404.56;10414728;28;20092;-66
2021/11/22 19:55:33;;;;;;;0.00;0.00;;;;;;;-145.06;100.00;63404.56;10391585;28;20485;-66
2021/11/22 20:00:33;;;;;;;0.00;0.00;;;;;;;-145.06;100.00;63404.56;10409602;28;20029;-66
2021/11/22 20:05:34;;;;;;;0.00;0.00;;;;;;;-145.06;100.00;63404.56;10409022;28;20103;-66
2021/11/22 20:10:34;;;;;;;0.00;0.00;;;;;;;-145.06;100.00;63404.56;10391807;28;20026;-67
2021/11/22 20:15:34;;;;;;;0.00;0.00;;;;;;;-145.06;100.00;63404.56;10409515;28;20485;-67
2021/11/22 20:20:35;;;;;;;0.00;0.00;;;;;;;-145.06;100.00;63404.56;10422891;28;20025;-67
2021/11/22 20:25:36;;;;;;;0.00;0.00;;;;;;;-145.06;100.00;63404.56;10416952;28;20026;-67
2021/11/22 20:30:37;;;;;;;0.00;0.00;;;;;;;-145.06;100.00;63404.56;10417651;28;20025;-67
2021/11/22 20:35:37;;;;;;;0.00;0.00;;;;;;;-145.06;100.00;63404.56;10416124;28;20033;-67
2021/11/22 20:40:37;;;;;;;0.00;0.00;;;;;;;-145.06;100.00;63404.56;10421697;28;20024;-67
2021/11/22 20:45:38;;;;;;;0.00;0.00;;;;;;;-145.06;100.00;63404.56;10415042;28;20067;-67
2021/11/22 20:50:38;;;;;;;0.00;0.00;;;;;;;-145.06;100.00;63404.56;10438952;28;20274;-67
2021/11/22 20:55:39;;;;;;;0.00;0.00;;;;;;;-145.06;100.00;63404.56;10456045;28;20025;-67
2021/11/22 21:00:43;;;;;;;0.00;0.00;;;;;;;-145.06;100.00;63404.56;10431286;28;20275;-67
2021/11/22 21:05:45;;;;;;;0.00;0.00;;;;;;;-145.06;100.00;63404.56;10418091;28;20418;-67
2021/11/22 21:10:46;;;;;;;0.00;0.00;;;;;;;-145.06;100.00;63404.56;10456005;28;20423;-67
2021/11/22 21:15:47;;;;;;;0.00;0.00;;;;;;;-145.06;100.00;63404.56;10434781;28;20021;-67
2021/11/22 21:20:47;;;;;;;0.00;0.00;;;;;;;-145.06;100.00;63404.56;10444485;22;20012;-71
2021/11/22 21:25:48;;;;;;;0.00;0.00;;;;;;;-145.06;100.00;63404.56;10489305;28;20029;-71
2021/11/22 21:30:48;;;;;;;0.00;0.00;;;;;;;-145.06;100.00;63404.56;10489776;28;20030;-71
2021/11/22 21:35:49;;;;;;;0.00;0.00;;;;;;;-145.06;100.00;63404.56;10479346;28;20082;-71
2021/11/22 21:40:49;;;;;;;0.00;0.00;;;;;;;-145.06;100.00;63404.56;10478591;28;20032;-70
2021/11/22 21:45:50;;;;;;;0.00;0.00;;;;;;;-145.06;100.00;63404.56;10492438;28;20013;-71
2021/11/22 21:50:51;;;;;;;0.00;0.00;;;;;;;-145.06;100.00;63404.56;10474468;28;20048;-71
2021/11/22 21:55:51;;;;;;;0.00;0.00;;;;;;;-145.06;100.00;63404.56;10489204;28;20047;-70
2021/11/22 22:00:51;;;;;;;0.00;0.00;;;;;;;-145.06;100.00;63404.56;10488199;28;20294;-71
2021/11/22 22:05:52;;;;;;;0.00;0.00;;;;;;;-145.06;100.00;63404.56;10495165;28;20075;-70
2021/11/22 22:10:53;;;;;;;0.00;0.00;;;;;;;-145.06;100.00;63404.56;10473284;28;20062;-70
2021/11/22 22:15:53;;;;;;;0.00;0.00;;;;;;;-145.06;100.00;63404.56;10494131;28;20106;-70
2021/11/22 22:20:53;;;;;;;0.00;0.00;;;;;;;-145.06;100.00;63404.56;10490783;28;20028;-70
2021/11/22 22:25:55;;;;;;;0.00;0.00;;;;;;;-145.06;100.00;63404.56;10452837;28;20251;-70
2021/11/22 22:30:56;;;;;;;0.00;0.00;;;;;;;-145.06;100.00;63404.56;10455336;28;20199;-70
2021/11/22 22:35:56;;;;;;;0.00;0.00;;;;;;;-145.06;100.00;63404.56;10475600;28;20013;-71
2021/11/22 22:40:57;;;;;;;0.00;0.00;;;;;;;-145.06;100.00;63404.56;10485104;28;20120;-72